sensor_id;sensor_type;location;lat;lon;timestamp;P1;durP1;ratioP1;P2;durP2;ratioP2
6388;SDS011;3227;42.654;23.360;2022-10-19T00:00:46;21.47;;;8.67;;
6388;SDS011;3227;42.654;23.360;2022-10-19T00:03:13;15.73;;;8.33;;
6388;SDS011;3227;42.654;23.360;2022-10-19T00:05:40;14.27;;;8.20;;
6388;SDS011;3227;42.654;23.360;2022-10-19T00:08:07;11.97;;;7.57;;
6388;SDS011;3227;42.654;23.360;2022-10-19T00:10:37;13.17;;;8.03;;
6388;SDS011;3227;42.654;23.360;2022-10-19T00:13:05;12.83;;;7.60;;
6388;SDS011;3227;42.654;23.360;2022-10-19T00:15:32;11.93;;;7.37;;
6388;SDS011;3227;42.654;23.360;2022-10-19T00:17:58;14.00;;;7.67;;
6388;SDS011;3227;42.654;23.360;2022-10-19T00:20:25;12.43;;;7.40;;
6388;SDS011;3227;42.654;23.360;2022-10-19T00:22:52;13.63;;;8.13;;
6388;SDS011;3227;42.654;23.360;2022-10-19T00:25:19;16.00;;;8.77;;
6388;SDS011;3227;42.654;23.360;2022-10-19T00:27:47;17.63;;;8.37;;
6388;SDS011;3227;42.654;23.360;2022-10-19T00:30:14;15.17;;;8.30;;
6388;SDS011;3227;42.654;23.360;2022-10-19T00:32:41;15.83;;;8.83;;
6388;SDS011;3227;42.654;23.360;2022-10-19T00:35:08;13.63;;;8.03;;
6388;SDS011;3227;42.654;23.360;2022-10-19T00:37:35;14.37;;;8.10;;
6388;SDS011;3227;42.654;23.360;2022-10-19T00:40:01;16.37;;;8.73;;
6388;SDS011;3227;42.654;23.360;2022-10-19T00:42:29;14.07;;;8.40;;
6388;SDS011;3227;42.654;23.360;2022-10-19T00:45:04;13.30;;;7.80;;
6388;SDS011;3227;42.654;23.360;2022-10-19T00:47:36;11.07;;;6.87;;
6388;SDS011;3227;42.654;23.360;2022-10-19T00:50:04;12.57;;;6.57;;
6388;SDS011;3227;42.654;23.360;2022-10-19T00:52:31;11.70;;;7.03;;
6388;SDS011;3227;42.654;23.360;2022-10-19T00:54:58;12.13;;;6.83;;
6388;SDS011;3227;42.654;23.360;2022-10-19T00:57:26;11.27;;;7.00;;
6388;SDS011;3227;42.654;23.360;2022-10-19T00:59:55;13.23;;;7.70;;
6388;SDS011;3227;42.654;23.360;2022-10-19T01:02:26;10.83;;;6.60;;
6388;SDS011;3227;42.654;23.360;2022-10-19T01:04:53;14.30;;;7.13;;
6388;SDS011;3227;42.654;23.360;2022-10-19T01:07:20;11.70;;;5.93;;
6388;SDS011;3227;42.654;23.360;2022-10-19T01:09:47;11.73;;;6.53;;
6388;SDS011;3227;42.654;23.360;2022-10-19T01:12:17;11.17;;;6.80;;
6388;SDS011;3227;42.654;23.360;2022-10-19T01:14:54;11.50;;;6.40;;
6388;SDS011;3227;42.654;23.360;2022-10-19T01:17:40;12.67;;;7.17;;
6388;SDS011;3227;42.654;23.360;2022-10-19T01:20:22;13.50;;;6.50;;
6388;SDS011;3227;42.654;23.360;2022-10-19T01:26:31;14.17;;;6.40;;
6388;SDS011;3227;42.654;23.360;2022-10-19T01:29:12;13.23;;;6.17;;
6388;SDS011;3227;42.654;23.360;2022-10-19T01:31:50;13.40;;;7.20;;
6388;SDS011;3227;42.654;23.360;2022-10-19T01:34:24;12.67;;;6.90;;
6388;SDS011;3227;42.654;23.360;2022-10-19T01:36:58;10.73;;;6.90;;
6388;SDS011;3227;42.654;23.360;2022-10-19T01:39:31;11.30;;;7.00;;
6388;SDS011;3227;42.654;23.360;2022-10-19T01:42:06;12.53;;;6.97;;
6388;SDS011;3227;42.654;23.360;2022-10-19T01:44:39;12.63;;;6.17;;
6388;SDS011;3227;42.654;23.360;2022-10-19T01:47:13;11.40;;;6.50;;
6388;SDS011;3227;42.654;23.360;2022-10-19T01:49:45;12.63;;;6.87;;
6388;SDS011;3227;42.654;23.360;2022-10-19T01:52:17;11.37;;;6.53;;
6388;SDS011;3227;42.654;23.360;2022-10-19T01:54:46;12.03;;;6.37;;
6388;SDS011;3227;42.654;23.360;2022-10-19T01:57:16;13.23;;;6.30;;
6388;SDS011;3227;42.654;23.360;2022-10-19T01:59:47;12.37;;;6.27;;
6388;SDS011;3227;42.654;23.360;2022-10-19T02:02:16;10.67;;;6.00;;
6388;SDS011;3227;42.654;23.360;2022-10-19T02:04:46;10.67;;;5.67;;
6388;SDS011;3227;42.654;23.360;2022-10-19T02:07:15;11.40;;;5.87;;
6388;SDS011;3227;42.654;23.360;2022-10-19T02:09:45;9.37;;;5.77;;
6388;SDS011;3227;42.654;23.360;2022-10-19T02:12:12;20.63;;;6.13;;
6388;SDS011;3227;42.654;23.360;2022-10-19T02:14:41;10.20;;;5.80;;
6388;SDS011;3227;42.654;23.360;2022-10-19T02:17:11;11.63;;;6.07;;
6388;SDS011;3227;42.654;23.360;2022-10-19T02:19:42;11.07;;;5.83;;
6388;SDS011;3227;42.654;23.360;2022-10-19T02:22:09;12.67;;;6.40;;
6388;SDS011;3227;42.654;23.360;2022-10-19T02:24:38;11.97;;;6.23;;
6388;SDS011;3227;42.654;23.360;2022-10-19T02:27:20;9.63;;;6.30;;
6388;SDS011;3227;42.654;23.360;2022-10-19T02:29:47;13.00;;;5.90;;
6388;SDS011;3227;42.654;23.360;2022-10-19T02:32:13;11.43;;;6.10;;
6388;SDS011;3227;42.654;23.360;2022-10-19T02:34:40;11.10;;;6.10;;
6388;SDS011;3227;42.654;23.360;2022-10-19T02:37:09;11.27;;;6.17;;
6388;SDS011;3227;42.654;23.360;2022-10-19T02:39:36;17.93;;;6.97;;
6388;SDS011;3227;42.654;23.360;2022-10-19T02:42:04;12.47;;;6.57;;
6388;SDS011;3227;42.654;23.360;2022-10-19T02:44:35;13.77;;;6.23;;
6388;SDS011;3227;42.654;23.360;2022-10-19T02:47:09;16.03;;;6.43;;
6388;SDS011;3227;42.654;23.360;2022-10-19T02:49:40;12.33;;;6.40;;
6388;SDS011;3227;42.654;23.360;2022-10-19T02:52:10;13.50;;;6.63;;
6388;SDS011;3227;42.654;23.360;2022-10-19T02:54:38;12.87;;;6.57;;
6388;SDS011;3227;42.654;23.360;2022-10-19T02:57:13;10.10;;;5.67;;
6388;SDS011;3227;42.654;23.360;2022-10-19T02:59:41;12.10;;;6.13;;
6388;SDS011;3227;42.654;23.360;2022-10-19T03:02:08;11.67;;;6.17;;
6388;SDS011;3227;42.654;23.360;2022-10-19T03:04:35;12.47;;;6.10;;
6388;SDS011;3227;42.654;23.360;2022-10-19T03:07:02;12.97;;;6.17;;
6388;SDS011;3227;42.654;23.360;2022-10-19T03:09:30;11.83;;;5.73;;
6388;SDS011;3227;42.654;23.360;2022-10-19T03:11:57;12.30;;;6.80;;
6388;SDS011;3227;42.654;23.360;2022-10-19T03:14:24;13.47;;;6.73;;
6388;SDS011;3227;42.654;23.360;2022-10-19T03:16:50;13.30;;;7.33;;
6388;SDS011;3227;42.654;23.360;2022-10-19T03:19:17;17.50;;;7.37;;
6388;SDS011;3227;42.654;23.360;2022-10-19T03:21:44;14.67;;;7.83;;
6388;SDS011;3227;42.654;23.360;2022-10-19T03:24:11;15.63;;;8.13;;
6388;SDS011;3227;42.654;23.360;2022-10-19T03:26:39;22.93;;;7.70;;
6388;SDS011;3227;42.654;23.360;2022-10-19T03:29:06;15.50;;;7.90;;
6388;SDS011;3227;42.654;23.360;2022-10-19T03:31:33;17.83;;;8.00;;
6388;SDS011;3227;42.654;23.360;2022-10-19T03:34:00;15.13;;;7.90;;
6388;SDS011;3227;42.654;23.360;2022-10-19T03:36:28;12.87;;;7.47;;
6388;SDS011;3227;42.654;23.360;2022-10-19T03:38:57;13.67;;;7.57;;
6388;SDS011;3227;42.654;23.360;2022-10-19T03:41:25;16.10;;;8.37;;
6388;SDS011;3227;42.654;23.360;2022-10-19T03:43:55;15.40;;;7.80;;
6388;SDS011;3227;42.654;23.360;2022-10-19T03:46:22;17.23;;;8.00;;
6388;SDS011;3227;42.654;23.360;2022-10-19T03:48:49;12.20;;;6.70;;
6388;SDS011;3227;42.654;23.360;2022-10-19T03:51:17;12.23;;;7.10;;
6388;SDS011;3227;42.654;23.360;2022-10-19T03:53:46;14.40;;;6.23;;
6388;SDS011;3227;42.654;23.360;2022-10-19T03:56:17;18.90;;;7.20;;
6388;SDS011;3227;42.654;23.360;2022-10-19T03:58:47;14.90;;;7.17;;
6388;SDS011;3227;42.654;23.360;2022-10-19T04:01:17;13.90;;;6.93;;
6388;SDS011;3227;42.654;23.360;2022-10-19T04:03:45;15.57;;;7.60;;
6388;SDS011;3227;42.654;23.360;2022-10-19T04:06:12;18.00;;;8.57;;
6388;SDS011;3227;42.654;23.360;2022-10-19T04:08:42;16.47;;;7.83;;
6388;SDS011;3227;42.654;23.360;2022-10-19T04:11:10;12.53;;;7.30;;
6388;SDS011;3227;42.654;23.360;2022-10-19T04:13:39;20.33;;;7.97;;
6388;SDS011;3227;42.654;23.360;2022-10-19T04:16:06;23.33;;;9.70;;
6388;SDS011;3227;42.654;23.360;2022-10-19T04:18:36;22.37;;;9.23;;
6388;SDS011;3227;42.654;23.360;2022-10-19T04:21:03;20.80;;;9.20;;
6388;SDS011;3227;42.654;23.360;2022-10-19T04:23:31;25.63;;;10.20;;
6388;SDS011;3227;42.654;23.360;2022-10-19T04:26:00;22.93;;;8.77;;
6388;SDS011;3227;42.654;23.360;2022-10-19T04:28:33;22.20;;;8.87;;
6388;SDS011;3227;42.654;23.360;2022-10-19T04:31:00;24.30;;;8.40;;
6388;SDS011;3227;42.654;23.360;2022-10-19T04:33:28;26.60;;;8.20;;
6388;SDS011;3227;42.654;23.360;2022-10-19T04:35:58;25.90;;;8.83;;
6388;SDS011;3227;42.654;23.360;2022-10-19T04:38:26;21.20;;;9.23;;
6388;SDS011;3227;42.654;23.360;2022-10-19T04:40:54;24.40;;;10.10;;
6388;SDS011;3227;42.654;23.360;2022-10-19T04:43:21;24.73;;;10.10;;
6388;SDS011;3227;42.654;23.360;2022-10-19T04:45:48;28.87;;;9.70;;
6388;SDS011;3227;42.654;23.360;2022-10-19T04:48:19;26.20;;;10.97;;
6388;SDS011;3227;42.654;23.360;2022-10-19T04:50:45;32.83;;;11.57;;
6388;SDS011;3227;42.654;23.360;2022-10-19T04:53:13;23.93;;;9.97;;
6388;SDS011;3227;42.654;23.360;2022-10-19T04:55:41;30.93;;;10.33;;
6388;SDS011;3227;42.654;23.360;2022-10-19T04:58:08;32.87;;;10.63;;
6388;SDS011;3227;42.654;23.360;2022-10-19T05:00:37;29.60;;;10.97;;
6388;SDS011;3227;42.654;23.360;2022-10-19T05:03:04;40.33;;;11.40;;
6388;SDS011;3227;42.654;23.360;2022-10-19T05:05:32;48.37;;;11.87;;
6388;SDS011;3227;42.654;23.360;2022-10-19T05:07:59;32.23;;;12.23;;
6388;SDS011;3227;42.654;23.360;2022-10-19T05:10:27;26.87;;;11.13;;
6388;SDS011;3227;42.654;23.360;2022-10-19T05:12:54;47.03;;;13.23;;
6388;SDS011;3227;42.654;23.360;2022-10-19T05:15:21;35.43;;;12.93;;
6388;SDS011;3227;42.654;23.360;2022-10-19T05:17:47;31.47;;;10.83;;
6388;SDS011;3227;42.654;23.360;2022-10-19T05:20:14;33.70;;;11.53;;
6388;SDS011;3227;42.654;23.360;2022-10-19T05:22:41;41.17;;;12.17;;
6388;SDS011;3227;42.654;23.360;2022-10-19T05:25:08;26.03;;;10.53;;
6388;SDS011;3227;42.654;23.360;2022-10-19T05:27:36;47.20;;;13.87;;
6388;SDS011;3227;42.654;23.360;2022-10-19T05:30:03;44.07;;;14.93;;
6388;SDS011;3227;42.654;23.360;2022-10-19T05:32:30;43.80;;;14.23;;
6388;SDS011;3227;42.654;23.360;2022-10-19T05:34:57;55.20;;;14.57;;
6388;SDS011;3227;42.654;23.360;2022-10-19T05:37:24;65.00;;;21.40;;
6388;SDS011;3227;42.654;23.360;2022-10-19T05:39:51;49.63;;;17.73;;
6388;SDS011;3227;42.654;23.360;2022-10-19T05:42:19;47.63;;;18.07;;
6388;SDS011;3227;42.654;23.360;2022-10-19T05:44:47;46.70;;;16.80;;
6388;SDS011;3227;42.654;23.360;2022-10-19T05:47:14;46.37;;;15.73;;
6388;SDS011;3227;42.654;23.360;2022-10-19T05:49:41;37.57;;;13.53;;
6388;SDS011;3227;42.654;23.360;2022-10-19T05:52:07;28.30;;;13.03;;
6388;SDS011;3227;42.654;23.360;2022-10-19T05:54:35;41.53;;;13.30;;
6388;SDS011;3227;42.654;23.360;2022-10-19T05:57:02;29.27;;;12.17;;
6388;SDS011;3227;42.654;23.360;2022-10-19T05:59:29;36.03;;;11.17;;
6388;SDS011;3227;42.654;23.360;2022-10-19T06:01:57;28.83;;;11.80;;
6388;SDS011;3227;42.654;23.360;2022-10-19T06:04:24;35.93;;;11.50;;
6388;SDS011;3227;42.654;23.360;2022-10-19T06:06:51;28.63;;;11.07;;
6388;SDS011;3227;42.654;23.360;2022-10-19T06:09:18;20.30;;;10.40;;
6388;SDS011;3227;42.654;23.360;2022-10-19T06:11:44;25.47;;;11.03;;
6388;SDS011;3227;42.654;23.360;2022-10-19T06:14:13;19.33;;;10.40;;
6388;SDS011;3227;42.654;23.360;2022-10-19T06:16:41;21.60;;;10.27;;
6388;SDS011;3227;42.654;23.360;2022-10-19T06:19:11;19.87;;;10.90;;
6388;SDS011;3227;42.654;23.360;2022-10-19T06:21:37;24.90;;;11.10;;
6388;SDS011;3227;42.654;23.360;2022-10-19T06:24:04;27.40;;;10.80;;
6388;SDS011;3227;42.654;23.360;2022-10-19T06:26:32;24.57;;;11.30;;
6388;SDS011;3227;42.654;23.360;2022-10-19T06:29:00;30.60;;;12.27;;
6388;SDS011;3227;42.654;23.360;2022-10-19T06:31:27;25.70;;;11.73;;
6388;SDS011;3227;42.654;23.360;2022-10-19T06:33:54;25.60;;;12.60;;
6388;SDS011;3227;42.654;23.360;2022-10-19T06:36:23;29.90;;;13.33;;
6388;SDS011;3227;42.654;23.360;2022-10-19T06:38:51;32.17;;;13.13;;
6388;SDS011;3227;42.654;23.360;2022-10-19T06:41:18;26.13;;;13.87;;
6388;SDS011;3227;42.654;23.360;2022-10-19T06:43:48;25.27;;;13.50;;
6388;SDS011;3227;42.654;23.360;2022-10-19T06:46:15;25.47;;;13.63;;
6388;SDS011;3227;42.654;23.360;2022-10-19T06:48:48;31.13;;;14.40;;
6388;SDS011;3227;42.654;23.360;2022-10-19T06:51:15;29.47;;;16.20;;
6388;SDS011;3227;42.654;23.360;2022-10-19T06:53:43;34.83;;;16.17;;
6388;SDS011;3227;42.654;23.360;2022-10-19T06:56:11;27.43;;;14.77;;
6388;SDS011;3227;42.654;23.360;2022-10-19T06:58:37;29.83;;;14.37;;
6388;SDS011;3227;42.654;23.360;2022-10-19T07:01:05;23.63;;;14.20;;
6388;SDS011;3227;42.654;23.360;2022-10-19T07:03:33;28.73;;;14.27;;
6388;SDS011;3227;42.654;23.360;2022-10-19T07:06:01;29.33;;;14.50;;
6388;SDS011;3227;42.654;23.360;2022-10-19T07:08:34;31.07;;;15.83;;
6388;SDS011;3227;42.654;23.360;2022-10-19T07:11:04;26.70;;;14.43;;
6388;SDS011;3227;42.654;23.360;2022-10-19T07:13:33;32.00;;;15.00;;
6388;SDS011;3227;42.654;23.360;2022-10-19T07:16:01;31.33;;;13.60;;
6388;SDS011;3227;42.654;23.360;2022-10-19T07:18:30;26.53;;;13.63;;
6388;SDS011;3227;42.654;23.360;2022-10-19T07:20:59;23.73;;;12.50;;
6388;SDS011;3227;42.654;23.360;2022-10-19T07:23:28;22.73;;;13.30;;
6388;SDS011;3227;42.654;23.360;2022-10-19T07:25:55;23.50;;;13.67;;
6388;SDS011;3227;42.654;23.360;2022-10-19T07:28:27;29.57;;;12.37;;
6388;SDS011;3227;42.654;23.360;2022-10-19T07:30:54;21.03;;;11.90;;
6388;SDS011;3227;42.654;23.360;2022-10-19T07:33:21;27.57;;;13.53;;
6388;SDS011;3227;42.654;23.360;2022-10-19T07:35:48;26.63;;;13.83;;
6388;SDS011;3227;42.654;23.360;2022-10-19T07:38:15;22.60;;;12.33;;
6388;SDS011;3227;42.654;23.360;2022-10-19T07:40:42;31.27;;;13.13;;
6388;SDS011;3227;42.654;23.360;2022-10-19T07:43:09;24.10;;;13.00;;
6388;SDS011;3227;42.654;23.360;2022-10-19T07:45:37;25.20;;;12.57;;
6388;SDS011;3227;42.654;23.360;2022-10-19T07:48:04;27.43;;;13.17;;
6388;SDS011;3227;42.654;23.360;2022-10-19T07:50:31;27.50;;;13.43;;
6388;SDS011;3227;42.654;23.360;2022-10-19T07:52:58;22.57;;;12.40;;
6388;SDS011;3227;42.654;23.360;2022-10-19T07:55:26;21.57;;;11.47;;
6388;SDS011;3227;42.654;23.360;2022-10-19T07:57:53;24.90;;;12.30;;
6388;SDS011;3227;42.654;23.360;2022-10-19T08:00:20;23.93;;;12.57;;
6388;SDS011;3227;42.654;23.360;2022-10-19T08:02:48;22.10;;;11.80;;
6388;SDS011;3227;42.654;23.360;2022-10-19T08:05:15;21.60;;;11.93;;
6388;SDS011;3227;42.654;23.360;2022-10-19T08:07:42;23.10;;;12.20;;
6388;SDS011;3227;42.654;23.360;2022-10-19T08:10:11;23.03;;;12.83;;
6388;SDS011;3227;42.654;23.360;2022-10-19T08:12:37;22.70;;;13.30;;
6388;SDS011;3227;42.654;23.360;2022-10-19T08:15:05;31.30;;;13.47;;
6388;SDS011;3227;42.654;23.360;2022-10-19T08:17:33;24.80;;;13.40;;
6388;SDS011;3227;42.654;23.360;2022-10-19T08:20:03;26.87;;;13.00;;
6388;SDS011;3227;42.654;23.360;2022-10-19T08:22:31;22.23;;;12.60;;
6388;SDS011;3227;42.654;23.360;2022-10-19T08:24:58;22.27;;;12.37;;
6388;SDS011;3227;42.654;23.360;2022-10-19T08:27:25;32.60;;;14.03;;
6388;SDS011;3227;42.654;23.360;2022-10-19T08:29:53;27.50;;;13.60;;
6388;SDS011;3227;42.654;23.360;2022-10-19T08:32:20;33.40;;;12.93;;
6388;SDS011;3227;42.654;23.360;2022-10-19T08:34:47;24.23;;;12.50;;
6388;SDS011;3227;42.654;23.360;2022-10-19T08:37:20;20.93;;;12.67;;
6388;SDS011;3227;42.654;23.360;2022-10-19T08:39:47;22.10;;;13.70;;
6388;SDS011;3227;42.654;23.360;2022-10-19T08:42:15;26.37;;;12.97;;
6388;SDS011;3227;42.654;23.360;2022-10-19T08:45:00;26.13;;;13.03;;
6388;SDS011;3227;42.654;23.360;2022-10-19T08:47:52;26.30;;;13.70;;
6388;SDS011;3227;42.654;23.360;2022-10-19T08:50:24;23.60;;;10.87;;
6388;SDS011;3227;42.654;23.360;2022-10-19T08:52:59;29.57;;;11.37;;
6388;SDS011;3227;42.654;23.360;2022-10-19T08:55:32;30.37;;;12.00;;
6388;SDS011;3227;42.654;23.360;2022-10-19T08:58:10;24.30;;;10.00;;
6388;SDS011;3227;42.654;23.360;2022-10-19T09:00:48;18.40;;;9.33;;
6388;SDS011;3227;42.654;23.360;2022-10-19T09:03:22;20.37;;;9.13;;
6388;SDS011;3227;42.654;23.360;2022-10-19T09:05:52;15.57;;;8.83;;
6388;SDS011;3227;42.654;23.360;2022-10-19T09:08:29;19.77;;;10.77;;
6388;SDS011;3227;42.654;23.360;2022-10-19T09:10:56;23.67;;;9.83;;
6388;SDS011;3227;42.654;23.360;2022-10-19T09:13:28;14.23;;;7.40;;
6388;SDS011;3227;42.654;23.360;2022-10-19T09:16:00;17.10;;;6.70;;
6388;SDS011;3227;42.654;23.360;2022-10-19T09:18:30;14.13;;;6.17;;
6388;SDS011;3227;42.654;23.360;2022-10-19T09:21:02;15.17;;;6.77;;
6388;SDS011;3227;42.654;23.360;2022-10-19T09:23:37;14.93;;;5.90;;
6388;SDS011;3227;42.654;23.360;2022-10-19T09:26:08;14.53;;;5.53;;
6388;SDS011;3227;42.654;23.360;2022-10-19T09:28:41;8.73;;;5.20;;
6388;SDS011;3227;42.654;23.360;2022-10-19T09:31:14;17.67;;;5.33;;
6388;SDS011;3227;42.654;23.360;2022-10-19T09:33:48;12.70;;;5.30;;
6388;SDS011;3227;42.654;23.360;2022-10-19T09:36:21;11.63;;;4.80;;
6388;SDS011;3227;42.654;23.360;2022-10-19T09:38:50;10.40;;;5.27;;
6388;SDS011;3227;42.654;23.360;2022-10-19T09:41:18;9.40;;;5.30;;
6388;SDS011;3227;42.654;23.360;2022-10-19T09:43:48;14.20;;;5.43;;
6388;SDS011;3227;42.654;23.360;2022-10-19T09:46:25;8.77;;;4.93;;
6388;SDS011;3227;42.654;23.360;2022-10-19T09:48:58;8.77;;;4.40;;
6388;SDS011;3227;42.654;23.360;2022-10-19T09:51:27;22.07;;;5.10;;
6388;SDS011;3227;42.654;23.360;2022-10-19T09:54:20;10.07;;;4.20;;
6388;SDS011;3227;42.654;23.360;2022-10-19T09:56:52;9.80;;;4.03;;
6388;SDS011;3227;42.654;23.360;2022-10-19T09:59:20;18.17;;;4.50;;
6388;SDS011;3227;42.654;23.360;2022-10-19T10:01:58;7.53;;;4.37;;
6388;SDS011;3227;42.654;23.360;2022-10-19T10:04:27;10.10;;;4.20;;
6388;SDS011;3227;42.654;23.360;2022-10-19T10:06:55;8.97;;;4.20;;
6388;SDS011;3227;42.654;23.360;2022-10-19T10:09:24;9.03;;;4.47;;
6388;SDS011;3227;42.654;23.360;2022-10-19T10:11:55;7.83;;;4.13;;
6388;SDS011;3227;42.654;23.360;2022-10-19T10:14:25;8.40;;;4.30;;
6388;SDS011;3227;42.654;23.360;2022-10-19T10:16:55;10.33;;;4.93;;
6388;SDS011;3227;42.654;23.360;2022-10-19T10:19:25;10.07;;;4.57;;
6388;SDS011;3227;42.654;23.360;2022-10-19T10:21:54;10.57;;;4.77;;
6388;SDS011;3227;42.654;23.360;2022-10-19T10:24:24;9.07;;;4.27;;
6388;SDS011;3227;42.654;23.360;2022-10-19T10:26:53;11.77;;;4.50;;
6388;SDS011;3227;42.654;23.360;2022-10-19T10:29:21;8.80;;;5.00;;
6388;SDS011;3227;42.654;23.360;2022-10-19T10:31:51;10.13;;;4.93;;
6388;SDS011;3227;42.654;23.360;2022-10-19T10:37:07;13.05;;;6.10;;
6388;SDS011;3227;42.654;23.360;2022-10-19T10:39:44;10.57;;;4.13;;
6388;SDS011;3227;42.654;23.360;2022-10-19T10:42:13;9.73;;;4.80;;
6388;SDS011;3227;42.654;23.360;2022-10-19T10:44:44;10.50;;;4.37;;
6388;SDS011;3227;42.654;23.360;2022-10-19T10:47:17;14.07;;;5.13;;
6388;SDS011;3227;42.654;23.360;2022-10-19T10:49:51;8.90;;;4.87;;
6388;SDS011;3227;42.654;23.360;2022-10-19T10:52:19;11.57;;;5.10;;
6388;SDS011;3227;42.654;23.360;2022-10-19T10:54:58;9.63;;;5.03;;
6388;SDS011;3227;42.654;23.360;2022-10-19T10:57:27;14.63;;;4.50;;
6388;SDS011;3227;42.654;23.360;2022-10-19T10:59:59;13.93;;;4.53;;
6388;SDS011;3227;42.654;23.360;2022-10-19T11:02:34;13.80;;;4.57;;
6388;SDS011;3227;42.654;23.360;2022-10-19T11:05:09;9.87;;;4.70;;
6388;SDS011;3227;42.654;23.360;2022-10-19T11:07:39;16.20;;;4.60;;
6388;SDS011;3227;42.654;23.360;2022-10-19T11:10:12;12.23;;;4.93;;
6388;SDS011;3227;42.654;23.360;2022-10-19T11:12:48;12.60;;;4.90;;
6388;SDS011;3227;42.654;23.360;2022-10-19T11:15:18;12.60;;;5.77;;
6388;SDS011;3227;42.654;23.360;2022-10-19T11:17:50;16.60;;;4.97;;
6388;SDS011;3227;42.654;23.360;2022-10-19T11:20:23;14.00;;;4.30;;
6388;SDS011;3227;42.654;23.360;2022-10-19T11:22:57;12.77;;;5.50;;
6388;SDS011;3227;42.654;23.360;2022-10-19T11:25:35;10.10;;;4.00;;
6388;SDS011;3227;42.654;23.360;2022-10-19T11:28:17;11.20;;;4.50;;
6388;SDS011;3227;42.654;23.360;2022-10-19T11:30:54;12.43;;;4.83;;
6388;SDS011;3227;42.654;23.360;2022-10-19T11:33:33;9.40;;;3.90;;
6388;SDS011;3227;42.654;23.360;2022-10-19T11:36:16;10.07;;;3.77;;
6388;SDS011;3227;42.654;23.360;2022-10-19T11:38:55;12.23;;;3.87;;
6388;SDS011;3227;42.654;23.360;2022-10-19T11:41:34;7.83;;;3.60;;
6388;SDS011;3227;42.654;23.360;2022-10-19T11:44:24;13.67;;;4.30;;
6388;SDS011;3227;42.654;23.360;2022-10-19T11:47:12;10.67;;;3.60;;
6388;SDS011;3227;42.654;23.360;2022-10-19T11:49:50;14.07;;;4.00;;
6388;SDS011;3227;42.654;23.360;2022-10-19T11:52:29;11.32;;;4.15;;
6388;SDS011;3227;42.654;23.360;2022-10-19T11:55:05;14.65;;;4.32;;
6388;SDS011;3227;42.654;23.360;2022-10-19T11:57:48;13.63;;;4.00;;
6388;SDS011;3227;42.654;23.360;2022-10-19T12:00:20;11.67;;;4.70;;
6388;SDS011;3227;42.654;23.360;2022-10-19T12:02:52;9.07;;;3.90;;
6388;SDS011;3227;42.654;23.360;2022-10-19T12:05:32;9.20;;;3.57;;
6388;SDS011;3227;42.654;23.360;2022-10-19T12:08:16;9.35;;;4.10;;
6388;SDS011;3227;42.654;23.360;2022-10-19T12:10:59;8.52;;;3.92;;
6388;SDS011;3227;42.654;23.360;2022-10-19T12:13:33;8.27;;;3.73;;
6388;SDS011;3227;42.654;23.360;2022-10-19T12:16:05;11.25;;;3.80;;
6388;SDS011;3227;42.654;23.360;2022-10-19T12:18:34;9.67;;;3.97;;
6388;SDS011;3227;42.654;23.360;2022-10-19T12:21:07;12.80;;;4.18;;
6388;SDS011;3227;42.654;23.360;2022-10-19T12:23:37;10.20;;;3.97;;
6388;SDS011;3227;42.654;23.360;2022-10-19T12:26:06;11.77;;;4.10;;
6388;SDS011;3227;42.654;23.360;2022-10-19T12:28:38;9.50;;;4.03;;
6388;SDS011;3227;42.654;23.360;2022-10-19T12:31:08;7.63;;;3.45;;
6388;SDS011;3227;42.654;23.360;2022-10-19T12:33:38;9.80;;;4.03;;
6388;SDS011;3227;42.654;23.360;2022-10-19T12:36:14;13.50;;;4.10;;
6388;SDS011;3227;42.654;23.360;2022-10-19T12:38:50;10.63;;;4.38;;
6388;SDS011;3227;42.654;23.360;2022-10-19T12:41:25;11.63;;;4.10;;
6388;SDS011;3227;42.654;23.360;2022-10-19T12:44:13;10.43;;;4.00;;
6388;SDS011;3227;42.654;23.360;2022-10-19T12:47:05;10.35;;;4.22;;
6388;SDS011;3227;42.654;23.360;2022-10-19T12:49:45;7.20;;;3.72;;
6388;SDS011;3227;42.654;23.360;2022-10-19T12:52:14;14.23;;;4.38;;
6388;SDS011;3227;42.654;23.360;2022-10-19T12:55:09;11.55;;;4.65;;
6388;SDS011;3227;42.654;23.360;2022-10-19T12:57:38;10.10;;;4.30;;
6388;SDS011;3227;42.654;23.360;2022-10-19T13:00:19;7.55;;;4.00;;
6388;SDS011;3227;42.654;23.360;2022-10-19T13:02:54;7.65;;;3.97;;
6388;SDS011;3227;42.654;23.360;2022-10-19T13:05:25;17.70;;;4.82;;
6388;SDS011;3227;42.654;23.360;2022-10-19T13:07:54;10.05;;;4.40;;
6388;SDS011;3227;42.654;23.360;2022-10-19T13:10:22;10.20;;;4.15;;
6388;SDS011;3227;42.654;23.360;2022-10-19T13:12:51;8.80;;;3.80;;
6388;SDS011;3227;42.654;23.360;2022-10-19T13:21:47;17.75;;;4.35;;
6388;SDS011;3227;42.654;23.360;2022-10-19T13:24:38;14.48;;;5.40;;
6388;SDS011;3227;42.654;23.360;2022-10-19T13:30:02;7.22;;;4.25;;
6388;SDS011;3227;42.654;23.360;2022-10-19T13:32:38;13.20;;;4.28;;
6388;SDS011;3227;42.654;23.360;2022-10-19T13:35:24;11.32;;;4.55;;
6388;SDS011;3227;42.654;23.360;2022-10-19T13:41:00;11.48;;;4.20;;
6388;SDS011;3227;42.654;23.360;2022-10-19T13:43:30;11.43;;;4.10;;
6388;SDS011;3227;42.654;23.360;2022-10-19T13:46:05;9.88;;;4.47;;
6388;SDS011;3227;42.654;23.360;2022-10-19T13:49:01;11.60;;;5.85;;
6388;SDS011;3227;42.654;23.360;2022-10-19T13:51:57;10.02;;;4.63;;
6388;SDS011;3227;42.654;23.360;2022-10-19T13:54:51;14.90;;;4.93;;
6388;SDS011;3227;42.654;23.360;2022-10-19T13:57:43;8.40;;;4.18;;
6388;SDS011;3227;42.654;23.360;2022-10-19T14:00:19;7.50;;;4.22;;
6388;SDS011;3227;42.654;23.360;2022-10-19T14:03:01;14.40;;;4.82;;
6388;SDS011;3227;42.654;23.360;2022-10-19T14:05:51;12.43;;;4.50;;
6388;SDS011;3227;42.654;23.360;2022-10-19T14:08:33;11.82;;;4.55;;
6388;SDS011;3227;42.654;23.360;2022-10-19T14:11:11;9.73;;;4.00;;
6388;SDS011;3227;42.654;23.360;2022-10-19T14:13:40;13.98;;;4.68;;
6388;SDS011;3227;42.654;23.360;2022-10-19T14:16:14;8.90;;;4.10;;
6388;SDS011;3227;42.654;23.360;2022-10-19T14:18:43;8.88;;;4.47;;
6388;SDS011;3227;42.654;23.360;2022-10-19T14:21:29;11.90;;;4.57;;
6388;SDS011;3227;42.654;23.360;2022-10-19T14:23:57;16.33;;;4.85;;
6388;SDS011;3227;42.654;23.360;2022-10-19T14:26:25;11.50;;;4.45;;
6388;SDS011;3227;42.654;23.360;2022-10-19T14:28:55;8.75;;;4.57;;
6388;SDS011;3227;42.654;23.360;2022-10-19T14:31:24;9.80;;;4.63;;
6388;SDS011;3227;42.654;23.360;2022-10-19T14:33:58;9.68;;;4.07;;
6388;SDS011;3227;42.654;23.360;2022-10-19T14:36:31;9.13;;;4.65;;
6388;SDS011;3227;42.654;23.360;2022-10-19T14:39:01;9.80;;;4.53;;
6388;SDS011;3227;42.654;23.360;2022-10-19T14:41:29;10.27;;;4.47;;
6388;SDS011;3227;42.654;23.360;2022-10-19T14:43:57;12.85;;;4.80;;
6388;SDS011;3227;42.654;23.360;2022-10-19T14:46:28;8.93;;;4.70;;
6388;SDS011;3227;42.654;23.360;2022-10-19T14:48:58;12.50;;;5.20;;
6388;SDS011;3227;42.654;23.360;2022-10-19T14:51:32;16.70;;;5.22;;
6388;SDS011;3227;42.654;23.360;2022-10-19T14:54:05;15.67;;;5.37;;
6388;SDS011;3227;42.654;23.360;2022-10-19T14:56:37;10.93;;;5.45;;
6388;SDS011;3227;42.654;23.360;2022-10-19T14:59:19;12.15;;;4.72;;
6388;SDS011;3227;42.654;23.360;2022-10-19T15:01:51;9.13;;;5.17;;
6388;SDS011;3227;42.654;23.360;2022-10-19T15:04:21;9.40;;;5.37;;
6388;SDS011;3227;42.654;23.360;2022-10-19T15:06:53;11.90;;;5.43;;
6388;SDS011;3227;42.654;23.360;2022-10-19T15:09:21;10.93;;;5.50;;
6388;SDS011;3227;42.654;23.360;2022-10-19T15:11:51;12.95;;;5.30;;
6388;SDS011;3227;42.654;23.360;2022-10-19T15:14:22;10.90;;;5.60;;
6388;SDS011;3227;42.654;23.360;2022-10-19T15:16:54;10.53;;;5.53;;
6388;SDS011;3227;42.654;23.360;2022-10-19T15:19:23;13.87;;;5.80;;
6388;SDS011;3227;42.654;23.360;2022-10-19T15:22:11;13.37;;;5.70;;
6388;SDS011;3227;42.654;23.360;2022-10-19T15:24:53;14.80;;;5.77;;
6388;SDS011;3227;42.654;23.360;2022-10-19T15:27:29;16.80;;;6.50;;